^^
Grace C. Lehan Memorial Weather Station Historical Data
Daily Summary for August 14, 2022 Units:  Metric    English   Both
Daily Weekly Monthly Yearly
  High: Low: Average:
Temperature: 30.1 °C 13.6 °C 22.4 °C
Dew Point: 15.9 °C 11.7 °C 13.6 °C
Humidity: 92.5% 36.2% 61%
Wind Speed: 0.2km/h 0km/h 0km/h
Wind Gust: 3.2km/h - -
Wind- - NW
Pressure: 1017.8 hPa 1014.4 hPa -
Precipitation: 0 mm    
 
 
Tabular Data for August 14, 2022
Time Temperature Dew Point Pressure Wind Wind Speed Wind Gust Humidity Rainfall Rate (Hourly) solar
00:00 18.2 °C 13.4 °C 1017.2 hPa Calm     74% 0 mm 0 W/m2
00:09 18 °C 13.5 °C 1017.2 hPa Calm     75% 0 mm 0 W/m2
00:14 17.9 °C 13.4 °C 1017.2 hPa Calm     75% 0 mm 0 W/m2
00:19 17.8 °C 13.3 °C 1017.2 hPa Calm     75% 0 mm 0 W/m2
00:24 17.7 °C 13.2 °C 1017.2 hPa Calm     75% 0 mm 0 W/m2
00:29 17.6 °C 13.3 °C 1017.2 hPa Calm     76% 0 mm 0 W/m2
00:34 17.5 °C 13.1 °C 1017.2 hPa Calm     75.5% 0 mm 0 W/m2
00:39 17.4 °C 12.9 °C 1017.2 hPa Calm     75% 0 mm 0 W/m2
00:44 17.3 °C 12.8 °C 1017.2 hPa Calm     75% 0 mm 0 W/m2
00:49 17.3 °C 12.9 °C 1017.2 hPa Calm     75.6% 0 mm 0 W/m2
00:54 17.1 °C 12.8 °C 1017.2 hPa Calm     75.8% 0 mm 0 W/m2
00:59 17 °C 12.8 °C 1017.2 hPa Calm     76% 0 mm 0 W/m2
01:04 16.9 °C 12.6 °C 1017.2 hPa Calm     75.5% 0 mm 0 W/m2
01:09 16.8 °C 12.6 °C 1016.8 hPa Calm     76% 0 mm 0 W/m2
01:14 16.8 °C 12.7 °C 1016.8 hPa Calm     76.8% 0 mm 0 W/m2
01:19 16.7 °C 12.7 °C 1016.8 hPa Calm     77% 0 mm 0 W/m2
01:24 16.7 °C 12.6 °C 1016.8 hPa Calm     77% 0 mm 0 W/m2
01:29 16.6 °C 12.6 °C 1016.8 hPa Calm     77% 0 mm 0 W/m2
01:34 16.5 °C 12.6 °C 1016.8 hPa Calm     77.7% 0 mm 0 W/m2
01:39 16.4 °C 12.6 °C 1016.8 hPa Calm     78% 0 mm 0 W/m2
01:44 16.3 °C 12.6 °C 1016.8 hPa Calm     78.6% 0 mm 0 W/m2
01:49 16.2 °C 12.7 °C 1016.8 hPa Calm     79.8% 0 mm 0 W/m2
01:54 16.1 °C 12.6 °C 1016.8 hPa Calm     80% 0 mm 0 W/m2
01:59 15.9 °C 12.5 °C 1016.8 hPa Calm     80% 0 mm 0 W/m2
02:04 15.8 °C 12.4 °C 1016.8 hPa Calm     80% 0 mm 0 W/m2
02:09 15.8 °C 12.3 °C 1016.8 hPa Calm     80% 0 mm 0 W/m2
02:14 15.7 °C 12.4 °C 1016.8 hPa Calm     80.8% 0 mm 0 W/m2
02:19 15.7 °C 12.4 °C 1016.8 hPa Calm     81% 0 mm 0 W/m2
02:24 15.7 °C 12.6 °C 1016.8 hPa Calm     81.6% 0 mm 0 W/m2
02:29 15.7 °C 12.6 °C 1016.8 hPa Calm     82% 0 mm 0 W/m2
02:34 15.7 °C 12.6 °C 1016.8 hPa Calm     82% 0 mm 0 W/m2
02:39 15.7 °C 12.6 °C 1016.8 hPa Calm     82% 0 mm 0 W/m2
02:44 15.6 °C 12.6 °C 1016.8 hPa Calm     82% 0 mm 0 W/m2
02:49 15.6 °C 12.5 °C 1016.8 hPa Calm     82% 0 mm 0 W/m2
02:54 15.6 °C 12.5 °C 1016.8 hPa Calm     82% 0 mm 0 W/m2
02:59 15.5 °C 12.4 °C 1016.8 hPa Calm     82% 0 mm 0 W/m2
03:04 15.4 °C 12.3 °C 1016.8 hPa Calm     82% 0 mm 0 W/m2
03:09 15.3 °C 12.4 °C 1016.8 hPa Calm     82.9% 0 mm 0 W/m2
03:14 15.2 °C 12.4 °C 1016.8 hPa NW 0.2 km/h 3.2 km/h 83% 0 mm 0 W/m2
03:19 15.2 °C 12.3 °C 1016.8 hPa Calm   3.2 km/h 83% 0 mm 0 W/m2
03:24 15.1 °C 12.3 °C 1016.8 hPa Calm   3.2 km/h 83.3% 0 mm 0 W/m2
03:29 15.1 °C 12.3 °C 1016.8 hPa Calm   3.2 km/h 84% 0 mm 0 W/m2
03:34 14.9 °C 12.3 °C 1016.8 hPa Calm   3.2 km/h 84% 0 mm 0 W/m2
03:39 14.8 °C 12.3 °C 1016.8 hPa Calm     84.6% 0 mm 0 W/m2
03:44 14.8 °C 12.3 °C 1016.8 hPa Calm     85% 0 mm 0 W/m2
03:49 14.7 °C 12.2 °C 1016.8 hPa Calm     85% 0 mm 0 W/m2
03:54 14.6 °C 12.2 °C 1016.8 hPa Calm     85.5% 0 mm 0 W/m2
03:59 14.6 °C 12.2 °C 1016.8 hPa Calm     86% 0 mm 0 W/m2
04:09 14.4 °C 12.2 °C 1016.8 hPa Calm     86% 0 mm 0 W/m2
04:14 14.4 °C 12.2 °C 1016.8 hPa Calm     86.2% 0 mm 0 W/m2
04:19 14.4 °C 12.2 °C 1016.8 hPa Calm     87% 0 mm 0 W/m2
04:24 14.3 °C 12.2 °C 1017.2 hPa Calm     87% 0 mm 0 W/m2
04:29 14.3 °C 12.1 °C 1017.2 hPa Calm     87% 0 mm 0 W/m2
04:34 14.2 °C 12.1 °C 1017.2 hPa Calm     87% 0 mm 0 W/m2
04:39 14.2 °C 12.1 °C 1017.2 hPa Calm     87.1% 0 mm 0 W/m2
04:44 14.1 °C 12.2 °C 1017.2 hPa Calm     88% 0 mm 0 W/m2
04:49 14.1 °C 12.1 °C 1017.2 hPa Calm     88% 0 mm 0 W/m2
04:54 14.1 °C 12.3 °C 1017.2 hPa Calm     88.7% 0 mm 0 W/m2
04:59 14.1 °C 12.3 °C 1017.2 hPa Calm     89% 0 mm 0 W/m2
05:04 14.1 °C 12.3 °C 1017.2 hPa Calm     89% 0 mm 0 W/m2
05:09 14.1 °C 12.3 °C 1017.2 hPa Calm     89% 0 mm 0 W/m2
05:14 14 °C 12.2 °C 1017.2 hPa Calm     89% 0 mm 0 W/m2
05:19 14 °C 12.2 °C 1017.2 hPa Calm     89% 0 mm 0 W/m2
05:24 13.9 °C 12.3 °C 1017.2 hPa Calm     89.6% 0 mm 0 W/m2
05:29 13.9 °C 12.3 °C 1017.2 hPa Calm     90% 0 mm 0 W/m2
05:34 13.9 °C 12.3 °C 1017.5 hPa Calm     90% 0 mm 0 W/m2
05:39 13.9 °C 12.3 °C 1017.5 hPa Calm     90% 0 mm 0 W/m2
05:44 13.9 °C 12.3 °C 1017.5 hPa Calm     90% 0 mm 0 W/m2
05:49 13.9 °C 12.3 °C 1017.5 hPa Calm     90% 0 mm 0 W/m2
05:54 13.9 °C 12.3 °C 1017.5 hPa Calm     90% 0 mm 0 W/m2
05:59 13.8 °C 12.2 °C 1017.5 hPa Calm     90% 0 mm 0 W/m2
06:04 13.7 °C 12.1 °C 1017.5 hPa Calm     90% 0 mm 5 W/m2
06:09 13.7 °C 12.1 °C 1017.5 hPa Calm     90% 0 mm 7 W/m2
06:14 13.7 °C 12.2 °C 1017.5 hPa Calm     90.6% 0 mm 11 W/m2
06:19 13.6 °C 12.2 °C 1017.5 hPa Calm     91% 0 mm 16 W/m2
06:24 13.6 °C 12.2 °C 1017.5 hPa Calm     91% 0 mm 23 W/m2
06:29 13.6 °C 12.2 °C 1017.5 hPa Calm     91% 0 mm 28 W/m2
06:34 13.6 °C 12.2 °C 1017.5 hPa Calm     91% 0 mm 35 W/m2
06:39 13.6 °C 12.2 °C 1017.5 hPa Calm     91% 0 mm 42 W/m2
06:44 13.7 °C 12.2 °C 1017.5 hPa Calm     91% 0 mm 88 W/m2
06:49 13.8 °C 12.5 °C 1017.5 hPa Calm     91.8% 0 mm 128 W/m2
06:54 14 °C 12.7 °C 1017.5 hPa Calm     92% 0 mm 179 W/m2
06:59 14.4 °C 13.2 °C 1017.5 hPa Calm     92.5% 0 mm 199 W/m2
07:04 14.8 °C 13.5 °C 1017.5 hPa Calm     92% 0 mm 216 W/m2
07:09 15.4 °C 14.1 °C 1017.5 hPa Calm     91.6% 0 mm 253 W/m2
07:14 16.1 °C 14.4 °C 1017.5 hPa Calm     89.9% 0 mm 267 W/m2
07:19 16.7 °C 14.7 °C 1017.8 hPa Calm     87.6% 0 mm 220 W/m2
07:24 17.5 °C 14.8 °C 1017.8 hPa Calm     84.1% 0 mm 232 W/m2
07:29 18.1 °C 14.9 °C 1017.8 hPa Calm     81.4% 0 mm 250 W/m2
07:34 18.6 °C 14.9 °C 1017.5 hPa Calm     79.1% 0 mm 269 W/m2
07:39 18.8 °C 14.8 °C 1017.8 hPa Calm     77.3% 0 mm 285 W/m2
07:44 19.2 °C 14.8 °C 1017.8 hPa Calm     75.7% 0 mm 302 W/m2
07:49 19.4 °C 14.7 °C 1017.8 hPa Calm     74.5% 0 mm 320 W/m2
07:54 19.7 °C 15.1 °C 1017.8 hPa Calm     74.7% 0 mm 338 W/m2
07:59 19.9 °C 14.6 °C 1017.8 hPa Calm     71.2% 0 mm 359 W/m2
08:09 20.3 °C 14.9 °C 1017.8 hPa Calm     70.9% 0 mm 394 W/m2
08:14 20.7 °C 14.9 °C 1017.8 hPa Calm     69.5% 0 mm 408 W/m2
08:19 21 °C 15.1 °C 1017.8 hPa Calm     68.8% 0 mm 427 W/m2
08:24 21.3 °C 14.8 °C 1017.8 hPa Calm     66.7% 0 mm 441 W/m2
08:29 21.4 °C 14.7 °C 1017.8 hPa Calm     65.7% 0 mm 455 W/m2
08:34 21.6 °C 14.8 °C 1017.8 hPa Calm     65.3% 0 mm 473 W/m2
08:39 21.8 °C 15 °C 1017.8 hPa Calm     65.3% 0 mm 489 W/m2
08:44 22.2 °C 15.2 °C 1017.8 hPa Calm     64.8% 0 mm 506 W/m2
08:49 22.4 °C 15.3 °C 1017.5 hPa Calm     63.9% 0 mm 522 W/m2
08:54 22.7 °C 15.3 °C 1017.5 hPa Calm     63.4% 0 mm 533 W/m2
08:59 22.9 °C 15.3 °C 1017.5 hPa Calm     62.2% 0 mm 548 W/m2
09:04 23.2 °C 15.3 °C 1017.5 hPa Calm     61% 0 mm 563 W/m2
09:09 23.5 °C 15.2 °C 1017.5 hPa Calm     59.6% 0 mm 578 W/m2
09:14 23.7 °C 15.4 °C 1017.5 hPa Calm     59.8% 0 mm 592 W/m2
09:19 23.9 °C 15.7 °C 1017.5 hPa Calm     59.9% 0 mm 603 W/m2
09:24 24.1 °C 15.6 °C 1017.5 hPa Calm     59% 0 mm 619 W/m2
09:29 24.3 °C 15.4 °C 1017.5 hPa Calm     57.6% 0 mm 633 W/m2
09:34 24.6 °C 15.8 °C 1017.5 hPa Calm     58.1% 0 mm 645 W/m2
09:39 24.8 °C 15.8 °C 1017.5 hPa Calm     57.3% 0 mm 659 W/m2
09:44 25.2 °C 15.7 °C 1017.5 hPa Calm     55.8% 0 mm 673 W/m2
09:49 25.4 °C 15.1 °C 1017.5 hPa Calm     53.1% 0 mm 686 W/m2
09:54 25.4 °C 15.6 °C 1017.5 hPa Calm     54.3% 0 mm 698 W/m2
09:59 25.7 °C 15.7 °C 1017.5 hPa Calm     53.9% 0 mm 714 W/m2
10:04 26 °C 15.7 °C 1017.5 hPa Calm     53.2% 0 mm 724 W/m2
10:09 26.3 °C 15.6 °C 1017.2 hPa Calm     51.7% 0 mm 737 W/m2
10:14 26.6 °C 15.7 °C 1017.2 hPa Calm     51.3% 0 mm 745 W/m2
10:19 26.8 °C 15.5 °C 1017.2 hPa Calm     50.1% 0 mm 756 W/m2
10:24 26.7 °C 15.5 °C 1017.2 hPa Calm     50.3% 0 mm 770 W/m2
10:29 26.8 °C 15.9 °C 1017.2 hPa Calm     51.3% 0 mm 779 W/m2
10:34 27.1 °C 15.8 °C 1017.2 hPa Calm     50.2% 0 mm 788 W/m2
10:39 27.3 °C 15.7 °C 1016.8 hPa Calm     49.2% 0 mm 798 W/m2
10:44 27.4 °C 15.7 °C 1016.8 hPa Calm     48.5% 0 mm 809 W/m2
10:49 27.6 °C 15.2 °C 1016.8 hPa Calm     46.6% 0 mm 833 W/m2
10:54 27.7 °C 15.3 °C 1016.8 hPa Calm     46.8% 0 mm 912 W/m2
10:59 27.7 °C 15.4 °C 1016.8 hPa Calm     47% 0 mm 946 W/m2
11:04 27.7 °C 14.4 °C 1016.8 hPa Calm     44.3% 0 mm 401 W/m2
11:09 27.6 °C 15.3 °C 1016.8 hPa Calm     47.1% 0 mm 974 W/m2
11:14 27.7 °C 14.9 °C 1016.8 hPa Calm     45.8% 0 mm 176 W/m2
11:19 27.4 °C 14.1 °C 1016.8 hPa Calm     43.8% 0 mm 995 W/m2
11:24 27.1 °C 12.9 °C 1016.5 hPa Calm     41.4% 0 mm 997 W/m2
11:29 26.8 °C 13.2 °C 1016.5 hPa Calm     43.1% 0 mm 1013 W/m2
11:34 26.7 °C 11.7 °C 1016.5 hPa Calm     39.3% 0 mm 1042 W/m2
11:39 26.9 °C 12.4 °C 1016.5 hPa Calm     40.6% 0 mm 1090 W/m2
11:44 27.6 °C 12.9 °C 1016.5 hPa Calm     40.5% 0 mm 1090 W/m2
11:49 27.8 °C 12.6 °C 1016.5 hPa Calm     39% 0 mm 1069 W/m2
11:54 27.7 °C 13.5 °C 1016.5 hPa Calm     41.7% 0 mm 1051 W/m2
11:59 27.8 °C 12.8 °C 1016.5 hPa Calm     39.7% 0 mm 1051 W/m2
12:00 27.8 °C 12.6 °C 1016.1 hPa Calm     39% 0 mm 255 W/m2
12:09 27.7 °C 12.9 °C 1016.1 hPa Calm     40% 0 mm 1090 W/m2
12:14 27.5 °C 12.9 °C 1016.1 hPa Calm     40.4% 0 mm 390 W/m2
12:19 27.4 °C 13.6 °C 1015.8 hPa Calm     42.6% 0 mm 1187 W/m2
12:24 27.6 °C 13.5 °C 1015.8 hPa Calm     41.9% 0 mm 1211 W/m2
12:29 27.8 °C 14 °C 1015.8 hPa Calm     42.7% 0 mm 1211 W/m2
12:34 28.1 °C 14.3 °C 1015.8 hPa Calm     43.1% 0 mm 294 W/m2
12:39 28.1 °C 13.8 °C 1015.8 hPa Calm     41.5% 0 mm 1106 W/m2
12:44 28.1 °C 13.4 °C 1015.8 hPa Calm     40.7% 0 mm 1102 W/m2
12:49 27.9 °C 13.9 °C 1015.8 hPa Calm     42.1% 0 mm 181 W/m2
12:54 27.8 °C 13.8 °C 1015.8 hPa Calm     42.3% 0 mm 181 W/m2
12:59 27.8 °C 13 °C 1015.8 hPa Calm     40.1% 0 mm 1076 W/m2
13:04 27.8 °C 13.1 °C 1015.8 hPa Calm     40.4% 0 mm 478 W/m2
13:09 27.7 °C 13.1 °C 1015.5 hPa Calm     40.5% 0 mm 566 W/m2
13:14 27.7 °C 13.6 °C 1015.5 hPa Calm     41.9% 0 mm 566 W/m2
13:19 27.7 °C 13.5 °C 1015.5 hPa Calm     41.6% 0 mm 956 W/m2
13:24 27.8 °C 13.2 °C 1015.5 hPa Calm     40.5% 0 mm 995 W/m2
13:29 28.1 °C 14.4 °C 1015.5 hPa Calm     43.2% 0 mm 1063 W/m2
13:34 28.6 °C 14.1 °C 1015.5 hPa Calm     41.2% 0 mm 1041 W/m2
13:39 28.9 °C 13.9 °C 1015.5 hPa Calm     39.8% 0 mm 381 W/m2
13:44 28.9 °C 13.6 °C 1015.5 hPa Calm     39.1% 0 mm 1102 W/m2
13:49 28.9 °C 14.3 °C 1015.5 hPa Calm     41% 0 mm 1065 W/m2
13:54 29.2 °C 14.1 °C 1015.5 hPa Calm     39.6% 0 mm 1005 W/m2
13:59 29.4 °C 13.8 °C 1015.1 hPa Calm     38.3% 0 mm 844 W/m2
14:04 29.3 °C 13.5 °C 1015.1 hPa Calm     37.9% 0 mm 1034 W/m2
14:09 29.2 °C 14.1 °C 1015.1 hPa Calm     39.6% 0 mm 1092 W/m2
14:14 29.2 °C 13.6 °C 1015.1 hPa Calm     38.2% 0 mm 281 W/m2
14:19 29 °C 13.6 °C 1015.1 hPa Calm     38.9% 0 mm 1049 W/m2
14:24 29 °C 13.9 °C 1015.1 hPa Calm     39.8% 0 mm 1037 W/m2
14:29 29.3 °C 14.4 °C 1015.1 hPa Calm     40.2% 0 mm 1076 W/m2
14:34 29.7 °C 13.9 °C 1015.1 hPa Calm     38.1% 0 mm 1141 W/m2
14:39 29.9 °C 13.7 °C 1014.8 hPa Calm     37.1% 0 mm 410 W/m2
14:44 29.9 °C 14.6 °C 1014.8 hPa Calm     39.5% 0 mm 891 W/m2
14:49 29.9 °C 13.9 °C 1014.8 hPa Calm     37.7% 0 mm 891 W/m2
14:54 29.9 °C 13.6 °C 1014.8 hPa Calm     36.8% 0 mm 283 W/m2
14:59 29.7 °C 13.8 °C 1014.8 hPa Calm     37.7% 0 mm 981 W/m2
15:04 29.6 °C 13.8 °C 1014.8 hPa Calm     38.1% 0 mm 967 W/m2
15:09 29.5 °C 13.3 °C 1014.4 hPa Calm     37.2% 0 mm 758 W/m2
15:14 29.2 °C 13.7 °C 1014.4 hPa Calm     38.5% 0 mm 877 W/m2
15:19 29.2 °C 13.5 °C 1014.4 hPa Calm     38.2% 0 mm 795 W/m2
15:24 29.2 °C 13.7 °C 1014.4 hPa Calm     38.6% 0 mm 547 W/m2
15:29 29.3 °C 13.6 °C 1014.4 hPa Calm     38.3% 0 mm 863 W/m2
15:34 29.3 °C 13.7 °C 1014.4 hPa Calm     38.5% 0 mm 853 W/m2
15:39 29.4 °C 14 °C 1014.4 hPa Calm     38.9% 0 mm 851 W/m2
15:44 29.6 °C 14.1 °C 1014.4 hPa Calm     39% 0 mm 805 W/m2
15:49 29.7 °C 13.9 °C 1014.4 hPa Calm     38% 0 mm 870 W/m2
15:54 30 °C 13.5 °C 1014.4 hPa Calm     36.4% 0 mm 738 W/m2
15:59 30.1 °C 13.4 °C 1014.4 hPa Calm     36.2% 0 mm 765 W/m2
16:00 30 °C 13.7 °C 1014.4 hPa Calm     37% 0 mm 693 W/m2
16:09 29.6 °C 13.6 °C 1014.4 hPa Calm     37.6% 0 mm 680 W/m2
16:14 29.4 °C 13.8 °C 1014.4 hPa Calm     38.4% 0 mm 510 W/m2
16:19 29.3 °C 14.2 °C 1014.4 hPa Calm     39.6% 0 mm 257 W/m2
16:24 29.3 °C 13.9 °C 1014.4 hPa Calm     39% 0 mm 251 W/m2
16:29 29.3 °C 14 °C 1014.4 hPa Calm     39.2% 0 mm 232 W/m2
16:34 29.1 °C 13.6 °C 1014.4 hPa Calm     38.6% 0 mm 223 W/m2
16:39 28.9 °C 13.6 °C 1014.4 hPa Calm     39% 0 mm 202 W/m2
16:44 28.7 °C 13.6 °C 1014.4 hPa Calm     39.6% 0 mm 181 W/m2
16:49 28.6 °C 13.8 °C 1014.4 hPa Calm     40.5% 0 mm 197 W/m2
16:54 28.4 °C 13.8 °C 1014.4 hPa Calm     40.6% 0 mm 192 W/m2
16:59 28.2 °C 13.3 °C 1014.4 hPa Calm     40% 0 mm 148 W/m2
17:04 27.8 °C 13.5 °C 1014.4 hPa Calm     41.3% 0 mm 144 W/m2
17:09 27.7 °C 13.3 °C 1014.4 hPa Calm     41.1% 0 mm 148 W/m2
17:14 27.5 °C 13.5 °C 1014.4 hPa Calm     42.2% 0 mm 149 W/m2
17:19 27.4 °C 13.4 °C 1014.4 hPa Calm     42.1% 0 mm 137 W/m2
17:24 27.4 °C 13.5 °C 1014.4 hPa Calm     42.3% 0 mm 120 W/m2
17:29 27.4 °C 13.4 °C 1014.4 hPa Calm     42% 0 mm 97 W/m2
17:34 27.5 °C 13.6 °C 1014.4 hPa Calm     42.2% 0 mm 95 W/m2
17:39 27.4 °C 13.4 °C 1014.4 hPa Calm     42% 0 mm 91 W/m2
17:44 27.4 °C 13.4 °C 1014.4 hPa Calm     42% 0 mm 90 W/m2
17:49 27.4 °C 13.4 °C 1014.4 hPa Calm     42.1% 0 mm 81 W/m2
17:54 27.4 °C 13.7 °C 1014.4 hPa Calm     43.1% 0 mm 77 W/m2
17:59 27.3 °C 13.5 °C 1014.4 hPa Calm     42.5% 0 mm 76 W/m2
18:04 27.3 °C 13.4 °C 1014.4 hPa Calm     42.2% 0 mm 76 W/m2
18:09 27.3 °C 13.6 °C 1014.4 hPa Calm     42.6% 0 mm 74 W/m2
18:14 27.3 °C 13.3 °C 1014.4 hPa Calm     42.2% 0 mm 70 W/m2
18:19 27.2 °C 13.3 °C 1014.4 hPa Calm     42.5% 0 mm 70 W/m2
18:24 27 °C 13.2 °C 1014.4 hPa Calm     42.5% 0 mm 72 W/m2
18:29 26.8 °C 13.2 °C 1014.4 hPa Calm     42.9% 0 mm 77 W/m2
18:34 26.8 °C 13.2 °C 1014.4 hPa Calm     43.2% 0 mm 79 W/m2
18:39 26.7 °C 13.4 °C 1014.4 hPa Calm     44% 0 mm 79 W/m2
18:44 26.7 °C 13.5 °C 1014.4 hPa Calm     44.2% 0 mm 77 W/m2
18:49 26.6 °C 13.4 °C 1014.4 hPa Calm     44.3% 0 mm 72 W/m2
18:54 26.4 °C 13.6 °C 1014.8 hPa Calm     45.3% 0 mm 67 W/m2
18:59 26.2 °C 13.7 °C 1014.8 hPa Calm     46.2% 0 mm 60 W/m2
19:04 26 °C 14.1 °C 1014.4 hPa Calm     47.9% 0 mm 51 W/m2
19:09 25.8 °C 14.3 °C 1014.8 hPa Calm     48.8% 0 mm 44 W/m2
19:14 25.7 °C 14.2 °C 1014.8 hPa Calm     49% 0 mm 37 W/m2
19:19 25.6 °C 14.4 °C 1014.8 hPa Calm     50% 0 mm 30 W/m2
19:24 25.5 °C 14.3 °C 1014.8 hPa Calm     50.1% 0 mm 25 W/m2
19:29 25.4 °C 14.4 °C 1014.8 hPa Calm     50.6% 0 mm 19 W/m2
19:34 25.2 °C 14.3 °C 1014.8 hPa Calm     50.8% 0 mm 16 W/m2
19:39 25.1 °C 14 °C 1014.8 hPa Calm     50.1% 0 mm 12 W/m2
19:44 24.9 °C 13.9 °C 1014.8 hPa Calm     50.4% 0 mm 9 W/m2
19:49 24.8 °C 13.7 °C 1014.8 hPa Calm   1.6 km/h 50.2% 0 mm 7 W/m2
19:54 24.6 °C 13.6 °C 1014.8 hPa Calm   1.6 km/h 50.3% 0 mm 0 W/m2
19:59 24.5 °C 13.6 °C 1014.8 hPa Calm   1.6 km/h 50.6% 0 mm 0 W/m2
20:00 24.4 °C 13.6 °C 1014.8 hPa Calm   1.6 km/h 51% 0 mm 0 W/m2
20:09 24.2 °C 13.4 °C 1014.8 hPa Calm     51.1% 0 mm 0 W/m2
20:14 24.1 °C 13.6 °C 1015.1 hPa Calm     52% 0 mm 0 W/m2
20:19 23.9 °C 13.5 °C 1015.1 hPa Calm     52% 0 mm 0 W/m2
20:24 23.8 °C 13.4 °C 1015.1 hPa Calm     52.2% 0 mm 0 W/m2
20:29 23.7 °C 13.6 °C 1015.1 hPa Calm     53% 0 mm 0 W/m2
20:34 23.7 °C 13.5 °C 1015.1 hPa Calm     53% 0 mm 0 W/m2
20:39 23.6 °C 13.4 °C 1015.1 hPa Calm     53% 0 mm 0 W/m2
20:44 23.4 °C 13.5 °C 1015.1 hPa Calm     53.7% 0 mm 0 W/m2
20:49 23.3 °C 13.5 °C 1015.1 hPa Calm     54% 0 mm 0 W/m2
20:54 23.2 °C 13.6 °C 1015.5 hPa WNW 0.2 km/h 3.2 km/h 54.7% 0 mm 0 W/m2
20:59 23.1 °C 13.5 °C 1015.5 hPa Calm   3.2 km/h 55% 0 mm 0 W/m2
21:04 22.9 °C 13.4 °C 1015.5 hPa Calm   3.2 km/h 55% 0 mm 0 W/m2
21:09 22.8 °C 13.4 °C 1015.5 hPa Calm     55.3% 0 mm 0 W/m2
21:14 22.7 °C 13.5 °C 1015.5 hPa Calm     56% 0 mm 0 W/m2
21:19 22.6 °C 13.4 °C 1015.5 hPa Calm     56% 0 mm 0 W/m2
21:24 22.6 °C 13.6 °C 1015.5 hPa Calm     57% 0 mm 0 W/m2
21:29 22.4 °C 13.5 °C 1015.5 hPa Calm     57% 0 mm 0 W/m2
21:34 22.4 °C 13.4 °C 1015.5 hPa Calm     57% 0 mm 0 W/m2
21:39 22.3 °C 13.4 °C 1015.5 hPa Calm     57.1% 0 mm 0 W/m2
21:44 22.2 °C 13.6 °C 1015.5 hPa Calm     58% 0 mm 0 W/m2
21:49 22.1 °C 13.6 °C 1015.5 hPa Calm     58.4% 0 mm 0 W/m2
21:54 22 °C 13.7 °C 1015.5 hPa Calm     59% 0 mm 0 W/m2
21:59 21.9 °C 13.6 °C 1015.5 hPa Calm     59% 0 mm 0 W/m2
22:04 21.8 °C 13.4 °C 1015.5 hPa Calm     59% 0 mm 0 W/m2
22:09 21.7 °C 13.5 °C 1015.5 hPa Calm     59.6% 0 mm 0 W/m2
22:14 21.6 °C 13.6 °C 1015.5 hPa Calm     60% 0 mm 0 W/m2
22:19 21.5 °C 13.5 °C 1015.5 hPa Calm     60.2% 0 mm 0 W/m2
22:24 21.4 °C 13.6 °C 1015.5 hPa Calm     61% 0 mm 0 W/m2
22:29 21.3 °C 13.5 °C 1015.8 hPa Calm     61.2% 0 mm 0 W/m2
22:34 21.1 °C 13.6 °C 1015.8 hPa Calm     62% 0 mm 0 W/m2
22:39 21 °C 13.6 °C 1015.5 hPa Calm     62.5% 0 mm 0 W/m2
22:44 20.9 °C 13.6 °C 1015.5 hPa Calm     63% 0 mm 0 W/m2
22:49 20.7 °C 13.7 °C 1015.5 hPa Calm     63.8% 0 mm 0 W/m2
22:54 20.6 °C 13.6 °C 1015.5 hPa Calm     64% 0 mm 0 W/m2
22:59 20.4 °C 13.6 °C 1015.8 hPa Calm     64.7% 0 mm 0 W/m2
23:04 20.3 °C 13.7 °C 1015.8 hPa Calm     65.6% 0 mm 0 W/m2
23:09 20.2 °C 13.7 °C 1015.8 hPa Calm     66% 0 mm 0 W/m2
23:14 20.2 °C 13.8 °C 1015.8 hPa Calm     66.8% 0 mm 0 W/m2
23:19 20.1 °C 13.8 °C 1015.5 hPa Calm     67.5% 0 mm 0 W/m2
23:24 19.9 °C 13.9 °C 1015.8 hPa Calm     68% 0 mm 0 W/m2
23:29 19.8 °C 13.8 °C 1015.8 hPa Calm     68.1% 0 mm 0 W/m2
23:34 19.7 °C 13.9 °C 1015.8 hPa Calm     69% 0 mm 0 W/m2
23:39 19.7 °C 14 °C 1015.8 hPa Calm     69.7% 0 mm 0 W/m2
23:44 19.6 °C 14 °C 1015.8 hPa Calm     70% 0 mm 0 W/m2
23:49 19.5 °C 13.9 °C 1015.8 hPa Calm     70% 0 mm 0 W/m2
23:54 19.4 °C 13.8 °C 1015.8 hPa Calm     70% 0 mm 0 W/m2
23:59 19.3 °C 13.9 °C 1015.8 hPa Calm     70.6% 0 mm 0 W/m2
Hartford County Weather
Compliments of Weather Underground - 2 mb